sensor_id;sensor_type;location;lat;lon;timestamp;P1;durP1;ratioP1;P2;durP2;ratioP2
81648;SDS011;71057;51.436;6.768;2023-08-20T00:02:04;8.30;;;4.83;;
81648;SDS011;71057;51.436;6.768;2023-08-20T00:04:32;6.97;;;4.90;;
81648;SDS011;71057;51.436;6.768;2023-08-20T00:07:00;7.35;;;5.00;;
81648;SDS011;71057;51.436;6.768;2023-08-20T00:09:25;7.50;;;4.83;;
81648;SDS011;71057;51.436;6.768;2023-08-20T00:11:52;8.18;;;4.65;;
81648;SDS011;71057;51.436;6.768;2023-08-20T00:14:17;7.93;;;4.70;;
81648;SDS011;71057;51.436;6.768;2023-08-20T00:16:42;8.87;;;5.37;;
81648;SDS011;71057;51.436;6.768;2023-08-20T00:19:08;7.90;;;4.82;;
81648;SDS011;71057;51.436;6.768;2023-08-20T00:21:33;6.55;;;4.78;;
81648;SDS011;71057;51.436;6.768;2023-08-20T00:23:58;6.43;;;4.77;;
81648;SDS011;71057;51.436;6.768;2023-08-20T00:26:24;6.10;;;4.63;;
81648;SDS011;71057;51.436;6.768;2023-08-20T00:28:49;8.80;;;5.82;;
81648;SDS011;71057;51.436;6.768;2023-08-20T00:31:14;6.40;;;4.77;;
81648;SDS011;71057;51.436;6.768;2023-08-20T00:33:39;6.40;;;4.90;;
81648;SDS011;71057;51.436;6.768;2023-08-20T00:36:04;7.63;;;5.55;;
81648;SDS011;71057;51.436;6.768;2023-08-20T00:38:30;9.10;;;5.70;;
81648;SDS011;71057;51.436;6.768;2023-08-20T00:40:55;9.60;;;4.97;;
81648;SDS011;71057;51.436;6.768;2023-08-20T00:43:20;8.43;;;5.18;;
81648;SDS011;71057;51.436;6.768;2023-08-20T00:45:45;8.67;;;6.30;;
81648;SDS011;71057;51.436;6.768;2023-08-20T00:48:11;7.90;;;6.00;;
81648;SDS011;71057;51.436;6.768;2023-08-20T00:50:36;8.38;;;5.90;;
81648;SDS011;71057;51.436;6.768;2023-08-20T00:53:02;7.60;;;4.90;;
81648;SDS011;71057;51.436;6.768;2023-08-20T00:55:27;6.80;;;5.10;;
81648;SDS011;71057;51.436;6.768;2023-08-20T00:57:52;8.40;;;5.53;;
81648;SDS011;71057;51.436;6.768;2023-08-20T01:00:17;6.53;;;4.87;;
81648;SDS011;71057;51.436;6.768;2023-08-20T01:02:43;6.67;;;5.33;;
81648;SDS011;71057;51.436;6.768;2023-08-20T01:05:09;6.90;;;5.10;;
81648;SDS011;71057;51.436;6.768;2023-08-20T01:10:22;9.07;;;5.22;;
81648;SDS011;71057;51.436;6.768;2023-08-20T01:12:49;9.45;;;5.57;;
81648;SDS011;71057;51.436;6.768;2023-08-20T01:15:16;8.93;;;5.85;;
81648;SDS011;71057;51.436;6.768;2023-08-20T01:17:41;8.67;;;6.80;;
81648;SDS011;71057;51.436;6.768;2023-08-20T01:20:07;7.63;;;5.33;;
81648;SDS011;71057;51.436;6.768;2023-08-20T01:30:29;8.48;;;5.97;;
81648;SDS011;71057;51.436;6.768;2023-08-20T01:32:55;11.23;;;6.00;;
81648;SDS011;71057;51.436;6.768;2023-08-20T01:35:22;9.50;;;6.55;;
81648;SDS011;71057;51.436;6.768;2023-08-20T01:37:49;8.48;;;6.35;;
81648;SDS011;71057;51.436;6.768;2023-08-20T01:40:14;9.53;;;6.43;;
81648;SDS011;71057;51.436;6.768;2023-08-20T01:42:39;9.27;;;6.20;;
81648;SDS011;71057;51.436;6.768;2023-08-20T01:45:05;8.15;;;5.82;;
81648;SDS011;71057;51.436;6.768;2023-08-20T01:47:30;9.50;;;6.60;;
81648;SDS011;71057;51.436;6.768;2023-08-20T01:49:56;7.95;;;6.13;;
81648;SDS011;71057;51.436;6.768;2023-08-20T01:52:21;9.87;;;6.77;;
81648;SDS011;71057;51.436;6.768;2023-08-20T01:54:47;11.07;;;7.60;;
81648;SDS011;71057;51.436;6.768;2023-08-20T01:57:12;8.45;;;6.45;;
81648;SDS011;71057;51.436;6.768;2023-08-20T01:59:38;9.63;;;6.57;;
81648;SDS011;71057;51.436;6.768;2023-08-20T02:02:03;8.83;;;6.37;;
81648;SDS011;71057;51.436;6.768;2023-08-20T02:04:29;9.90;;;6.38;;
81648;SDS011;71057;51.436;6.768;2023-08-20T02:06:54;8.73;;;6.73;;
81648;SDS011;71057;51.436;6.768;2023-08-20T02:09:19;8.23;;;6.73;;
81648;SDS011;71057;51.436;6.768;2023-08-20T02:11:45;11.90;;;7.45;;
81648;SDS011;71057;51.436;6.768;2023-08-20T02:14:10;9.97;;;6.67;;
81648;SDS011;71057;51.436;6.768;2023-08-20T02:16:36;9.60;;;7.00;;
81648;SDS011;71057;51.436;6.768;2023-08-20T02:19:01;10.93;;;7.20;;
81648;SDS011;71057;51.436;6.768;2023-08-20T02:21:27;10.90;;;7.65;;
81648;SDS011;71057;51.436;6.768;2023-08-20T02:23:53;9.15;;;6.78;;
81648;SDS011;71057;51.436;6.768;2023-08-20T02:26:18;8.60;;;6.90;;
81648;SDS011;71057;51.436;6.768;2023-08-20T02:28:44;9.43;;;6.40;;
81648;SDS011;71057;51.436;6.768;2023-08-20T02:31:14;10.35;;;7.72;;
81648;SDS011;71057;51.436;6.768;2023-08-20T02:33:39;10.87;;;9.03;;
81648;SDS011;71057;51.436;6.768;2023-08-20T02:36:04;10.60;;;7.73;;
81648;SDS011;71057;51.436;6.768;2023-08-20T02:38:30;11.03;;;7.60;;
81648;SDS011;71057;51.436;6.768;2023-08-20T02:40:55;10.87;;;8.27;;
81648;SDS011;71057;51.436;6.768;2023-08-20T02:43:20;13.10;;;7.53;;
81648;SDS011;71057;51.436;6.768;2023-08-20T02:45:45;11.63;;;8.23;;
81648;SDS011;71057;51.436;6.768;2023-08-20T02:48:11;11.87;;;6.80;;
81648;SDS011;71057;51.436;6.768;2023-08-20T02:50:36;10.60;;;7.38;;
81648;SDS011;71057;51.436;6.768;2023-08-20T02:53:01;13.33;;;8.70;;
81648;SDS011;71057;51.436;6.768;2023-08-20T02:55:26;10.67;;;7.80;;
81648;SDS011;71057;51.436;6.768;2023-08-20T02:57:52;11.87;;;7.63;;
81648;SDS011;71057;51.436;6.768;2023-08-20T03:00:17;12.70;;;8.13;;
81648;SDS011;71057;51.436;6.768;2023-08-20T03:02:42;12.57;;;9.40;;
81648;SDS011;71057;51.436;6.768;2023-08-20T03:05:10;11.70;;;8.83;;
81648;SDS011;71057;51.436;6.768;2023-08-20T03:07:35;11.75;;;8.95;;
81648;SDS011;71057;51.436;6.768;2023-08-20T03:10:00;12.37;;;8.27;;
81648;SDS011;71057;51.436;6.768;2023-08-20T03:12:26;12.80;;;7.93;;
81648;SDS011;71057;51.436;6.768;2023-08-20T03:14:51;13.10;;;8.33;;
81648;SDS011;71057;51.436;6.768;2023-08-20T03:17:16;11.20;;;7.33;;
81648;SDS011;71057;51.436;6.768;2023-08-20T03:19:53;10.27;;;7.87;;
81648;SDS011;71057;51.436;6.768;2023-08-20T03:22:19;11.90;;;8.38;;
81648;SDS011;71057;51.436;6.768;2023-08-20T03:24:44;12.50;;;8.83;;
81648;SDS011;71057;51.436;6.768;2023-08-20T03:27:09;13.33;;;9.27;;
81648;SDS011;71057;51.436;6.768;2023-08-20T03:29:34;16.57;;;9.83;;
81648;SDS011;71057;51.436;6.768;2023-08-20T03:31:59;12.70;;;8.03;;
81648;SDS011;71057;51.436;6.768;2023-08-20T03:34:25;12.00;;;9.03;;
81648;SDS011;71057;51.436;6.768;2023-08-20T03:36:50;16.50;;;10.07;;
81648;SDS011;71057;51.436;6.768;2023-08-20T03:39:15;14.33;;;8.77;;
81648;SDS011;71057;51.436;6.768;2023-08-20T03:41:40;12.97;;;9.67;;
81648;SDS011;71057;51.436;6.768;2023-08-20T03:44:05;13.87;;;9.37;;
81648;SDS011;71057;51.436;6.768;2023-08-20T03:46:31;12.63;;;9.03;;
81648;SDS011;71057;51.436;6.768;2023-08-20T03:48:56;13.80;;;9.53;;
81648;SDS011;71057;51.436;6.768;2023-08-20T03:51:21;12.07;;;8.23;;
81648;SDS011;71057;51.436;6.768;2023-08-20T03:53:46;13.60;;;8.93;;
81648;SDS011;71057;51.436;6.768;2023-08-20T03:56:11;13.93;;;8.17;;
81648;SDS011;71057;51.436;6.768;2023-08-20T03:58:36;12.30;;;8.17;;
81648;SDS011;71057;51.436;6.768;2023-08-20T04:01:02;13.53;;;8.20;;
81648;SDS011;71057;51.436;6.768;2023-08-20T04:03:28;12.57;;;8.52;;
81648;SDS011;71057;51.436;6.768;2023-08-20T04:05:53;12.63;;;8.43;;
81648;SDS011;71057;51.436;6.768;2023-08-20T04:08:18;12.07;;;8.30;;
81648;SDS011;71057;51.436;6.768;2023-08-20T04:10:44;11.13;;;8.47;;
81648;SDS011;71057;51.436;6.768;2023-08-20T04:13:10;12.75;;;8.63;;
81648;SDS011;71057;51.436;6.768;2023-08-20T04:15:36;12.38;;;8.52;;
81648;SDS011;71057;51.436;6.768;2023-08-20T04:18:01;12.20;;;9.00;;
81648;SDS011;71057;51.436;6.768;2023-08-20T04:20:26;13.43;;;8.87;;
81648;SDS011;71057;51.436;6.768;2023-08-20T04:22:51;14.23;;;8.60;;
81648;SDS011;71057;51.436;6.768;2023-08-20T04:25:16;10.73;;;7.83;;
81648;SDS011;71057;51.436;6.768;2023-08-20T04:27:42;9.73;;;7.40;;
81648;SDS011;71057;51.436;6.768;2023-08-20T04:30:07;12.93;;;8.40;;
81648;SDS011;71057;51.436;6.768;2023-08-20T04:32:32;10.55;;;8.48;;
81648;SDS011;71057;51.436;6.768;2023-08-20T04:34:58;10.37;;;7.40;;
81648;SDS011;71057;51.436;6.768;2023-08-20T04:37:24;11.10;;;7.65;;
81648;SDS011;71057;51.436;6.768;2023-08-20T04:39:49;10.87;;;8.40;;
81648;SDS011;71057;51.436;6.768;2023-08-20T04:42:14;12.17;;;9.13;;
81648;SDS011;71057;51.436;6.768;2023-08-20T04:44:40;12.80;;;8.47;;
81648;SDS011;71057;51.436;6.768;2023-08-20T04:47:05;12.13;;;8.20;;
81648;SDS011;71057;51.436;6.768;2023-08-20T04:49:32;12.60;;;7.40;;
81648;SDS011;71057;51.436;6.768;2023-08-20T04:52:03;12.60;;;9.60;;
81648;SDS011;71057;51.436;6.768;2023-08-20T04:54:28;14.57;;;9.82;;
81648;SDS011;71057;51.436;6.768;2023-08-20T04:56:53;14.67;;;9.40;;
81648;SDS011;71057;51.436;6.768;2023-08-20T04:59:19;12.27;;;8.93;;
81648;SDS011;71057;51.436;6.768;2023-08-20T05:01:44;15.70;;;10.40;;
81648;SDS011;71057;51.436;6.768;2023-08-20T05:04:09;14.43;;;9.37;;
81648;SDS011;71057;51.436;6.768;2023-08-20T05:06:34;13.23;;;10.60;;
81648;SDS011;71057;51.436;6.768;2023-08-20T05:08:59;13.67;;;9.50;;
81648;SDS011;71057;51.436;6.768;2023-08-20T05:11:25;14.03;;;10.53;;
81648;SDS011;71057;51.436;6.768;2023-08-20T05:13:50;13.53;;;9.40;;
81648;SDS011;71057;51.436;6.768;2023-08-20T05:16:15;13.07;;;10.00;;
81648;SDS011;71057;51.436;6.768;2023-08-20T05:18:40;16.65;;;9.45;;
81648;SDS011;71057;51.436;6.768;2023-08-20T05:21:06;12.10;;;8.57;;
81648;SDS011;71057;51.436;6.768;2023-08-20T05:23:31;13.97;;;8.97;;
81648;SDS011;71057;51.436;6.768;2023-08-20T05:25:56;15.93;;;9.93;;
81648;SDS011;71057;51.436;6.768;2023-08-20T05:28:21;13.50;;;9.03;;
81648;SDS011;71057;51.436;6.768;2023-08-20T05:30:56;14.17;;;9.07;;
81648;SDS011;71057;51.436;6.768;2023-08-20T05:33:22;13.00;;;9.52;;
81648;SDS011;71057;51.436;6.768;2023-08-20T05:35:47;14.73;;;10.13;;
81648;SDS011;71057;51.436;6.768;2023-08-20T05:38:13;14.20;;;8.87;;
81648;SDS011;71057;51.436;6.768;2023-08-20T05:40:38;13.30;;;9.13;;
81648;SDS011;71057;51.436;6.768;2023-08-20T05:43:03;14.10;;;9.40;;
81648;SDS011;71057;51.436;6.768;2023-08-20T05:45:28;12.53;;;9.53;;
81648;SDS011;71057;51.436;6.768;2023-08-20T05:47:53;14.23;;;10.00;;
81648;SDS011;71057;51.436;6.768;2023-08-20T05:50:18;14.23;;;9.57;;
81648;SDS011;71057;51.436;6.768;2023-08-20T05:52:44;14.95;;;10.52;;
81648;SDS011;71057;51.436;6.768;2023-08-20T05:55:09;14.47;;;11.07;;
81648;SDS011;71057;51.436;6.768;2023-08-20T05:57:35;14.45;;;10.93;;
81648;SDS011;71057;51.436;6.768;2023-08-20T06:00:02;17.05;;;11.07;;
81648;SDS011;71057;51.436;6.768;2023-08-20T06:02:29;15.93;;;11.30;;
81648;SDS011;71057;51.436;6.768;2023-08-20T06:04:54;16.13;;;12.00;;
81648;SDS011;71057;51.436;6.768;2023-08-20T06:07:19;15.77;;;11.13;;
81648;SDS011;71057;51.436;6.768;2023-08-20T06:09:44;16.57;;;12.47;;
81648;SDS011;71057;51.436;6.768;2023-08-20T06:12:10;17.30;;;12.70;;
81648;SDS011;71057;51.436;6.768;2023-08-20T06:14:35;15.30;;;11.77;;
81648;SDS011;71057;51.436;6.768;2023-08-20T06:17:00;15.07;;;11.80;;
81648;SDS011;71057;51.436;6.768;2023-08-20T06:19:25;16.93;;;12.70;;
81648;SDS011;71057;51.436;6.768;2023-08-20T06:21:50;18.30;;;12.37;;
81648;SDS011;71057;51.436;6.768;2023-08-20T06:24:16;16.00;;;11.33;;
81648;SDS011;71057;51.436;6.768;2023-08-20T06:26:41;16.90;;;12.97;;
81648;SDS011;71057;51.436;6.768;2023-08-20T06:29:09;16.73;;;12.82;;
81648;SDS011;71057;51.436;6.768;2023-08-20T06:31:34;16.93;;;13.40;;
81648;SDS011;71057;51.436;6.768;2023-08-20T06:33:59;16.20;;;12.93;;
81648;SDS011;71057;51.436;6.768;2023-08-20T06:36:25;17.97;;;14.43;;
81648;SDS011;71057;51.436;6.768;2023-08-20T06:38:50;19.52;;;14.18;;
81648;SDS011;71057;51.436;6.768;2023-08-20T06:41:15;18.97;;;12.87;;
81648;SDS011;71057;51.436;6.768;2023-08-20T06:43:40;18.93;;;13.93;;
81648;SDS011;71057;51.436;6.768;2023-08-20T06:46:05;18.97;;;13.60;;
81648;SDS011;71057;51.436;6.768;2023-08-20T06:48:31;17.15;;;12.57;;
81648;SDS011;71057;51.436;6.768;2023-08-20T06:50:56;16.55;;;13.23;;
81648;SDS011;71057;51.436;6.768;2023-08-20T06:53:22;16.47;;;12.33;;
81648;SDS011;71057;51.436;6.768;2023-08-20T06:55:47;18.90;;;13.07;;
81648;SDS011;71057;51.436;6.768;2023-08-20T06:58:12;17.27;;;12.37;;
81648;SDS011;71057;51.436;6.768;2023-08-20T07:00:37;19.50;;;12.10;;
81648;SDS011;71057;51.436;6.768;2023-08-20T07:03:03;18.17;;;13.53;;
81648;SDS011;71057;51.436;6.768;2023-08-20T07:05:28;16.15;;;12.77;;
81648;SDS011;71057;51.436;6.768;2023-08-20T07:07:53;18.23;;;13.80;;
81648;SDS011;71057;51.436;6.768;2023-08-20T07:10:18;18.10;;;13.40;;
81648;SDS011;71057;51.436;6.768;2023-08-20T07:12:44;17.50;;;13.70;;
81648;SDS011;71057;51.436;6.768;2023-08-20T07:15:09;17.20;;;13.63;;
81648;SDS011;71057;51.436;6.768;2023-08-20T07:17:34;16.02;;;12.82;;
81648;SDS011;71057;51.436;6.768;2023-08-20T07:19:59;15.23;;;11.97;;
81648;SDS011;71057;51.436;6.768;2023-08-20T07:22:24;16.87;;;13.60;;
81648;SDS011;71057;51.436;6.768;2023-08-20T07:24:50;18.40;;;13.17;;
81648;SDS011;71057;51.436;6.768;2023-08-20T07:27:15;24.05;;;14.27;;
81648;SDS011;71057;51.436;6.768;2023-08-20T07:29:40;17.33;;;13.07;;
81648;SDS011;71057;51.436;6.768;2023-08-20T07:32:06;16.60;;;13.68;;
81648;SDS011;71057;51.436;6.768;2023-08-20T07:34:31;17.70;;;13.50;;
81648;SDS011;71057;51.436;6.768;2023-08-20T07:36:58;16.70;;;12.35;;
81648;SDS011;71057;51.436;6.768;2023-08-20T07:39:23;18.58;;;13.95;;
81648;SDS011;71057;51.436;6.768;2023-08-20T07:41:48;16.73;;;12.47;;
81648;SDS011;71057;51.436;6.768;2023-08-20T07:44:14;17.93;;;12.10;;
81648;SDS011;71057;51.436;6.768;2023-08-20T07:46:39;18.37;;;13.00;;
81648;SDS011;71057;51.436;6.768;2023-08-20T07:49:04;15.93;;;12.63;;
81648;SDS011;71057;51.436;6.768;2023-08-20T07:51:29;18.20;;;13.38;;
81648;SDS011;71057;51.436;6.768;2023-08-20T07:53:55;18.53;;;14.07;;
81648;SDS011;71057;51.436;6.768;2023-08-20T07:56:20;18.77;;;14.00;;
81648;SDS011;71057;51.436;6.768;2023-08-20T07:58:45;19.40;;;14.07;;
81648;SDS011;71057;51.436;6.768;2023-08-20T08:01:10;18.43;;;14.50;;
81648;SDS011;71057;51.436;6.768;2023-08-20T08:03:35;18.57;;;13.70;;
81648;SDS011;71057;51.436;6.768;2023-08-20T08:06:01;19.57;;;14.43;;
81648;SDS011;71057;51.436;6.768;2023-08-20T08:08:26;21.08;;;14.18;;
81648;SDS011;71057;51.436;6.768;2023-08-20T08:10:51;19.40;;;13.90;;
81648;SDS011;71057;51.436;6.768;2023-08-20T08:13:20;20.23;;;14.30;;
81648;SDS011;71057;51.436;6.768;2023-08-20T08:15:45;20.05;;;13.77;;
81648;SDS011;71057;51.436;6.768;2023-08-20T08:18:11;21.27;;;16.25;;
81648;SDS011;71057;51.436;6.768;2023-08-20T08:20:36;19.60;;;13.45;;
81648;SDS011;71057;51.436;6.768;2023-08-20T08:23:02;20.03;;;14.47;;
81648;SDS011;71057;51.436;6.768;2023-08-20T08:25:27;21.30;;;14.77;;
81648;SDS011;71057;51.436;6.768;2023-08-20T08:27:52;18.77;;;13.03;;
81648;SDS011;71057;51.436;6.768;2023-08-20T08:30:18;19.45;;;12.88;;
81648;SDS011;71057;51.436;6.768;2023-08-20T08:32:43;17.10;;;11.40;;
81648;SDS011;71057;51.436;6.768;2023-08-20T08:35:08;20.13;;;12.63;;
81648;SDS011;71057;51.436;6.768;2023-08-20T08:37:33;18.87;;;11.97;;
81648;SDS011;71057;51.436;6.768;2023-08-20T08:39:58;17.87;;;11.53;;
81648;SDS011;71057;51.436;6.768;2023-08-20T08:42:24;14.90;;;10.90;;
81648;SDS011;71057;51.436;6.768;2023-08-20T08:44:49;16.75;;;12.15;;
81648;SDS011;71057;51.436;6.768;2023-08-20T08:47:15;16.63;;;11.07;;
81648;SDS011;71057;51.436;6.768;2023-08-20T08:49:40;15.60;;;12.23;;
81648;SDS011;71057;51.436;6.768;2023-08-20T08:52:05;24.73;;;14.87;;
81648;SDS011;71057;51.436;6.768;2023-08-20T08:54:32;21.23;;;13.20;;
81648;SDS011;71057;51.436;6.768;2023-08-20T08:56:58;19.08;;;12.32;;
81648;SDS011;71057;51.436;6.768;2023-08-20T08:59:23;17.87;;;11.87;;
81648;SDS011;71057;51.436;6.768;2023-08-20T09:01:48;20.70;;;11.83;;
81648;SDS011;71057;51.436;6.768;2023-08-20T09:04:14;17.93;;;11.63;;
81648;SDS011;71057;51.436;6.768;2023-08-20T09:06:45;16.37;;;10.43;;
81648;SDS011;71057;51.436;6.768;2023-08-20T09:09:11;14.65;;;10.48;;
81648;SDS011;71057;51.436;6.768;2023-08-20T09:11:36;12.50;;;9.57;;
81648;SDS011;71057;51.436;6.768;2023-08-20T09:14:02;11.50;;;9.00;;
81648;SDS011;71057;51.436;6.768;2023-08-20T09:16:29;10.13;;;8.18;;
81648;SDS011;71057;51.436;6.768;2023-08-20T09:18:54;12.32;;;8.63;;
81648;SDS011;71057;51.436;6.768;2023-08-20T09:21:20;11.43;;;9.33;;
81648;SDS011;71057;51.436;6.768;2023-08-20T09:23:53;17.30;;;12.00;;
81648;SDS011;71057;51.436;6.768;2023-08-20T09:26:18;14.27;;;12.20;;
81648;SDS011;71057;51.436;6.768;2023-08-20T09:28:45;16.17;;;11.70;;
81648;SDS011;71057;51.436;6.768;2023-08-20T09:31:10;16.13;;;12.43;;
81648;SDS011;71057;51.436;6.768;2023-08-20T09:33:36;14.70;;;12.07;;
81648;SDS011;71057;51.436;6.768;2023-08-20T09:36:02;15.02;;;12.32;;
81648;SDS011;71057;51.436;6.768;2023-08-20T09:38:27;14.63;;;11.27;;
81648;SDS011;71057;51.436;6.768;2023-08-20T09:40:53;18.73;;;13.27;;
81648;SDS011;71057;51.436;6.768;2023-08-20T09:43:21;18.00;;;13.35;;
81648;SDS011;71057;51.436;6.768;2023-08-20T09:45:48;15.65;;;12.43;;
81648;SDS011;71057;51.436;6.768;2023-08-20T09:48:18;15.05;;;12.50;;
81648;SDS011;71057;51.436;6.768;2023-08-20T09:50:47;13.93;;;10.88;;
81648;SDS011;71057;51.436;6.768;2023-08-20T09:53:17;15.80;;;11.50;;
81648;SDS011;71057;51.436;6.768;2023-08-20T09:55:46;15.00;;;11.77;;
81648;SDS011;71057;51.436;6.768;2023-08-20T09:58:12;18.17;;;13.68;;
81648;SDS011;71057;51.436;6.768;2023-08-20T10:00:38;15.77;;;12.23;;
81648;SDS011;71057;51.436;6.768;2023-08-20T10:03:03;17.10;;;14.98;;
81648;SDS011;71057;51.436;6.768;2023-08-20T10:05:29;17.13;;;14.93;;
81648;SDS011;71057;51.436;6.768;2023-08-20T10:07:55;18.38;;;15.05;;
81648;SDS011;71057;51.436;6.768;2023-08-20T10:10:20;14.93;;;13.23;;
81648;SDS011;71057;51.436;6.768;2023-08-20T10:12:45;14.43;;;12.93;;
81648;SDS011;71057;51.436;6.768;2023-08-20T10:15:12;15.38;;;13.00;;
81648;SDS011;71057;51.436;6.768;2023-08-20T10:17:37;16.60;;;12.90;;
81648;SDS011;71057;51.436;6.768;2023-08-20T10:20:03;15.95;;;11.25;;
81648;SDS011;71057;51.436;6.768;2023-08-20T10:22:36;13.75;;;10.27;;
81648;SDS011;71057;51.436;6.768;2023-08-20T10:25:03;10.52;;;8.82;;
81648;SDS011;71057;51.436;6.768;2023-08-20T10:27:34;10.35;;;8.73;;
81648;SDS011;71057;51.436;6.768;2023-08-20T10:29:59;9.88;;;8.27;;
81648;SDS011;71057;51.436;6.768;2023-08-20T10:35:08;11.23;;;7.78;;
81648;SDS011;71057;51.436;6.768;2023-08-20T10:37:34;12.67;;;9.40;;
81648;SDS011;71057;51.436;6.768;2023-08-20T10:39:59;11.60;;;8.10;;
81648;SDS011;71057;51.436;6.768;2023-08-20T10:42:27;11.30;;;8.33;;
81648;SDS011;71057;51.436;6.768;2023-08-20T10:45:05;9.57;;;7.88;;
81648;SDS011;71057;51.436;6.768;2023-08-20T10:50:02;6.95;;;6.25;;
81648;SDS011;71057;51.436;6.768;2023-08-20T10:52:27;7.45;;;6.22;;
81648;SDS011;71057;51.436;6.768;2023-08-20T10:54:52;6.43;;;4.73;;
81648;SDS011;71057;51.436;6.768;2023-08-20T10:57:18;7.20;;;5.37;;
81648;SDS011;71057;51.436;6.768;2023-08-20T10:59:50;6.30;;;5.13;;
81648;SDS011;71057;51.436;6.768;2023-08-20T11:02:20;5.88;;;4.53;;
81648;SDS011;71057;51.436;6.768;2023-08-20T11:04:45;6.87;;;5.40;;
81648;SDS011;71057;51.436;6.768;2023-08-20T11:07:10;7.27;;;6.00;;
81648;SDS011;71057;51.436;6.768;2023-08-20T11:09:36;6.50;;;5.63;;
81648;SDS011;71057;51.436;6.768;2023-08-20T11:12:04;7.53;;;6.72;;
81648;SDS011;71057;51.436;6.768;2023-08-20T11:14:29;7.87;;;5.60;;
81648;SDS011;71057;51.436;6.768;2023-08-20T11:16:55;6.25;;;5.65;;
81648;SDS011;71057;51.436;6.768;2023-08-20T11:19:21;7.93;;;6.03;;
81648;SDS011;71057;51.436;6.768;2023-08-20T11:21:46;7.60;;;6.88;;
81648;SDS011;71057;51.436;6.768;2023-08-20T11:24:12;6.95;;;6.05;;
81648;SDS011;71057;51.436;6.768;2023-08-20T11:26:40;8.63;;;5.95;;
81648;SDS011;71057;51.436;6.768;2023-08-20T11:29:06;6.75;;;5.32;;
81648;SDS011;71057;51.436;6.768;2023-08-20T11:31:31;7.63;;;6.82;;
81648;SDS011;71057;51.436;6.768;2023-08-20T11:33:57;7.90;;;5.50;;
81648;SDS011;71057;51.436;6.768;2023-08-20T11:36:22;6.30;;;5.67;;
81648;SDS011;71057;51.436;6.768;2023-08-20T11:38:54;7.15;;;5.55;;
81648;SDS011;71057;51.436;6.768;2023-08-20T11:41:22;5.85;;;3.88;;
81648;SDS011;71057;51.436;6.768;2023-08-20T11:43:48;5.18;;;3.85;;
81648;SDS011;71057;51.436;6.768;2023-08-20T11:46:14;5.65;;;4.00;;
81648;SDS011;71057;51.436;6.768;2023-08-20T11:51:26;4.43;;;4.03;;
81648;SDS011;71057;51.436;6.768;2023-08-20T11:53:51;6.50;;;4.35;;
81648;SDS011;71057;51.436;6.768;2023-08-20T11:56:16;5.20;;;4.10;;
81648;SDS011;71057;51.436;6.768;2023-08-20T11:58:42;6.22;;;4.53;;
81648;SDS011;71057;51.436;6.768;2023-08-20T12:01:07;4.90;;;4.20;;
81648;SDS011;71057;51.436;6.768;2023-08-20T12:03:33;6.57;;;4.25;;
81648;SDS011;71057;51.436;6.768;2023-08-20T12:05:58;5.40;;;3.40;;
81648;SDS011;71057;51.436;6.768;2023-08-20T12:08:23;8.13;;;4.50;;
81648;SDS011;71057;51.436;6.768;2023-08-20T12:10:48;6.57;;;3.47;;
81648;SDS011;71057;51.436;6.768;2023-08-20T12:13:13;4.87;;;3.83;;
81648;SDS011;71057;51.436;6.768;2023-08-20T12:15:39;5.30;;;3.60;;
81648;SDS011;71057;51.436;6.768;2023-08-20T12:18:04;7.30;;;4.10;;
81648;SDS011;71057;51.436;6.768;2023-08-20T12:20:30;7.15;;;3.40;;
81648;SDS011;71057;51.436;6.768;2023-08-20T12:22:59;5.70;;;3.55;;
81648;SDS011;71057;51.436;6.768;2023-08-20T12:25:25;4.68;;;3.20;;
81648;SDS011;71057;51.436;6.768;2023-08-20T12:27:50;5.22;;;3.33;;
81648;SDS011;71057;51.436;6.768;2023-08-20T12:30:16;5.17;;;3.30;;
81648;SDS011;71057;51.436;6.768;2023-08-20T12:32:41;7.37;;;3.40;;
81648;SDS011;71057;51.436;6.768;2023-08-20T12:35:06;6.57;;;3.67;;
81648;SDS011;71057;51.436;6.768;2023-08-20T12:37:31;7.23;;;3.13;;
81648;SDS011;71057;51.436;6.768;2023-08-20T12:39:57;4.78;;;2.80;;
81648;SDS011;71057;51.436;6.768;2023-08-20T12:42:22;6.87;;;2.97;;
81648;SDS011;71057;51.436;6.768;2023-08-20T12:44:48;6.67;;;2.57;;
81648;SDS011;71057;51.436;6.768;2023-08-20T12:47:13;5.30;;;2.43;;
81648;SDS011;71057;51.436;6.768;2023-08-20T12:49:38;5.13;;;2.60;;
81648;SDS011;71057;51.436;6.768;2023-08-20T12:52:03;4.00;;;2.40;;
81648;SDS011;71057;51.436;6.768;2023-08-20T12:54:28;6.88;;;2.45;;
81648;SDS011;71057;51.436;6.768;2023-08-20T12:56:54;4.23;;;2.30;;
81648;SDS011;71057;51.436;6.768;2023-08-20T12:59:19;5.50;;;2.53;;
81648;SDS011;71057;51.436;6.768;2023-08-20T13:01:45;8.57;;;3.30;;
81648;SDS011;71057;51.436;6.768;2023-08-20T13:04:10;5.57;;;2.80;;
81648;SDS011;71057;51.436;6.768;2023-08-20T13:06:36;5.10;;;2.20;;
81648;SDS011;71057;51.436;6.768;2023-08-20T13:09:02;3.80;;;2.50;;
81648;SDS011;71057;51.436;6.768;2023-08-20T13:11:28;4.65;;;2.22;;
81648;SDS011;71057;51.436;6.768;2023-08-20T13:13:55;5.20;;;2.38;;
81648;SDS011;71057;51.436;6.768;2023-08-20T13:16:21;4.30;;;2.03;;
81648;SDS011;71057;51.436;6.768;2023-08-20T13:18:46;5.45;;;2.20;;
81648;SDS011;71057;51.436;6.768;2023-08-20T13:21:11;5.23;;;2.33;;
81648;SDS011;71057;51.436;6.768;2023-08-20T13:23:36;6.13;;;2.50;;
81648;SDS011;71057;51.436;6.768;2023-08-20T13:26:01;5.77;;;2.43;;
81648;SDS011;71057;51.436;6.768;2023-08-20T13:28:27;4.78;;;2.15;;
81648;SDS011;71057;51.436;6.768;2023-08-20T13:30:52;5.37;;;2.20;;
81648;SDS011;71057;51.436;6.768;2023-08-20T13:33:17;3.90;;;2.55;;
81648;SDS011;71057;51.436;6.768;2023-08-20T13:35:43;4.37;;;2.50;;
81648;SDS011;71057;51.436;6.768;2023-08-20T13:38:08;5.30;;;2.47;;
81648;SDS011;71057;51.436;6.768;2023-08-20T13:40:33;4.70;;;2.17;;
81648;SDS011;71057;51.436;6.768;2023-08-20T13:42:58;6.07;;;2.50;;
81648;SDS011;71057;51.436;6.768;2023-08-20T13:45:23;6.63;;;2.43;;
81648;SDS011;71057;51.436;6.768;2023-08-20T13:47:49;5.35;;;2.05;;
81648;SDS011;71057;51.436;6.768;2023-08-20T13:50:14;4.70;;;2.23;;
81648;SDS011;71057;51.436;6.768;2023-08-20T13:52:39;5.60;;;2.10;;
81648;SDS011;71057;51.436;6.768;2023-08-20T13:55:04;6.40;;;2.30;;
81648;SDS011;71057;51.436;6.768;2023-08-20T13:57:30;5.45;;;2.25;;
81648;SDS011;71057;51.436;6.768;2023-08-20T13:59:55;4.27;;;2.10;;
81648;SDS011;71057;51.436;6.768;2023-08-20T14:02:20;4.20;;;2.17;;
81648;SDS011;71057;51.436;6.768;2023-08-20T14:04:46;4.22;;;1.80;;
81648;SDS011;71057;51.436;6.768;2023-08-20T14:07:12;3.80;;;2.08;;
81648;SDS011;71057;51.436;6.768;2023-08-20T14:09:37;5.30;;;2.20;;
81648;SDS011;71057;51.436;6.768;2023-08-20T14:12:04;4.72;;;1.95;;
81648;SDS011;71057;51.436;6.768;2023-08-20T14:14:30;4.53;;;2.10;;
81648;SDS011;71057;51.436;6.768;2023-08-20T14:16:55;4.23;;;1.93;;
81648;SDS011;71057;51.436;6.768;2023-08-20T14:19:20;6.63;;;2.00;;
81648;SDS011;71057;51.436;6.768;2023-08-20T14:21:45;6.18;;;2.33;;
81648;SDS011;71057;51.436;6.768;2023-08-20T14:24:10;4.00;;;1.92;;
81648;SDS011;71057;51.436;6.768;2023-08-20T14:26:36;4.93;;;2.47;;
81648;SDS011;71057;51.436;6.768;2023-08-20T14:29:01;4.05;;;2.13;;
81648;SDS011;71057;51.436;6.768;2023-08-20T14:31:26;5.37;;;3.00;;
81648;SDS011;71057;51.436;6.768;2023-08-20T14:33:51;4.00;;;2.40;;
81648;SDS011;71057;51.436;6.768;2023-08-20T14:36:16;4.73;;;2.10;;
81648;SDS011;71057;51.436;6.768;2023-08-20T14:38:42;4.17;;;1.90;;
81648;SDS011;71057;51.436;6.768;2023-08-20T14:41:07;3.40;;;1.70;;
81648;SDS011;71057;51.436;6.768;2023-08-20T14:43:32;6.30;;;2.03;;
81648;SDS011;71057;51.436;6.768;2023-08-20T14:45:57;3.83;;;2.17;;